createdAt,value
2022-12-31T00:01:49.319Z,3.67
2022-12-31T00:04:16.180Z,3.66
2022-12-31T00:06:42.844Z,3.65
2022-12-31T00:09:10.596Z,3.67
2022-12-31T00:11:38.125Z,3.67
2022-12-31T00:14:05.550Z,3.67
2022-12-31T00:16:36.770Z,3.70
2022-12-31T00:19:05.066Z,3.68
2022-12-31T00:21:34.152Z,3.73
2022-12-31T00:24:01.741Z,4.03
2022-12-31T00:26:31.000Z,4.01
2022-12-31T00:28:59.753Z,4.24
2022-12-31T00:31:29.454Z,4.19
2022-12-31T00:33:57.111Z,4.25
2022-12-31T00:36:28.129Z,4.14
2022-12-31T00:38:56.357Z,3.97
2022-12-31T00:41:23.953Z,3.91
2022-12-31T00:43:50.931Z,3.83
2022-12-31T00:46:18.605Z,3.82
2022-12-31T00:48:45.914Z,3.83
2022-12-31T00:51:15.960Z,3.98
2022-12-31T00:53:43.338Z,3.89
2022-12-31T00:56:13.628Z,3.96
2022-12-31T00:58:41.475Z,4.16
2022-12-31T01:01:19.227Z,4.15
2022-12-31T01:03:47.240Z,4.24
2022-12-31T01:06:14.491Z,4.13
2022-12-31T01:08:41.301Z,4.04
2022-12-31T01:11:25.362Z,3.94
2022-12-31T01:13:55.365Z,3.77
2022-12-31T01:16:26.025Z,3.74
2022-12-31T01:18:53.410Z,3.67
2022-12-31T01:21:21.599Z,3.63
2022-12-31T01:23:48.443Z,3.60
2022-12-31T01:26:16.572Z,3.60
2022-12-31T01:28:43.321Z,3.57
2022-12-31T01:31:13.254Z,3.57
2022-12-31T01:33:41.492Z,3.57
2022-12-31T01:36:25.081Z,3.54
2022-12-31T01:38:52.853Z,3.50
2022-12-31T01:41:22.344Z,3.52
2022-12-31T01:43:48.932Z,3.50
2022-12-31T01:46:23.849Z,3.47
2022-12-31T01:48:53.281Z,3.49
2022-12-31T01:51:21.161Z,3.46
2022-12-31T01:53:48.348Z,3.48
2022-12-31T01:56:15.132Z,3.60
2022-12-31T01:58:46.004Z,3.59
2022-12-31T02:01:18.702Z,3.54
2022-12-31T02:03:45.440Z,3.44
2022-12-31T02:06:20.689Z,3.47
2022-12-31T02:08:47.830Z,3.44
2022-12-31T02:11:26.797Z,3.36
2022-12-31T02:13:58.753Z,3.32
2022-12-31T02:16:40.893Z,3.30
2022-12-31T02:19:29.258Z,3.32
2022-12-31T02:22:01.479Z,3.33
2022-12-31T02:24:58.954Z,3.34
2022-12-31T02:27:45.463Z,3.37
2022-12-31T02:30:18.590Z,3.39
2022-12-31T02:32:45.227Z,3.42
2022-12-31T02:35:20.768Z,3.44
2022-12-31T02:37:53.168Z,3.46
2022-12-31T02:40:22.373Z,3.48
2022-12-31T02:42:55.116Z,3.58
2022-12-31T02:45:29.345Z,3.52
2022-12-31T02:48:03.449Z,3.54
2022-12-31T02:50:30.118Z,3.53
2022-12-31T02:53:28.737Z,3.55
2022-12-31T02:56:30.576Z,3.55
2022-12-31T02:59:28.843Z,3.57
2022-12-31T03:02:18.067Z,3.59
2022-12-31T03:04:50.489Z,3.62
2022-12-31T03:07:22.333Z,3.65
2022-12-31T03:09:50.018Z,3.66
2022-12-31T03:12:33.989Z,3.70
2022-12-31T03:15:00.673Z,3.73
2022-12-31T03:17:27.608Z,3.76
2022-12-31T03:20:09.683Z,3.79
2022-12-31T03:22:40.553Z,3.85
2022-12-31T03:25:24.282Z,3.87
2022-12-31T03:27:52.401Z,3.89
2022-12-31T03:30:21.029Z,3.93
2022-12-31T03:32:48.776Z,4.13
2022-12-31T03:35:17.340Z,4.08
2022-12-31T03:37:44.015Z,4.05
2022-12-31T03:40:12.950Z,4.04
2022-12-31T03:42:40.518Z,3.99
2022-12-31T03:45:08.839Z,4.33
2022-12-31T03:47:35.779Z,4.10
2022-12-31T03:50:02.894Z,4.07
2022-12-31T03:52:29.735Z,4.08
2022-12-31T03:54:56.440Z,4.04
2022-12-31T03:57:24.226Z,4.00
2022-12-31T03:59:51.020Z,4.07
2022-12-31T04:02:20.007Z,4.03
2022-12-31T04:04:49.851Z,4.07
2022-12-31T04:07:17.204Z,4.16
2022-12-31T04:09:43.986Z,4.16
2022-12-31T04:12:10.647Z,4.21
2022-12-31T04:14:37.270Z,4.17
2022-12-31T04:17:03.981Z,4.14
2022-12-31T04:19:31.937Z,4.22
2022-12-31T04:21:58.807Z,4.28
2022-12-31T04:24:25.742Z,4.22
2022-12-31T04:26:52.387Z,4.21
2022-12-31T04:29:19.706Z,4.26
2022-12-31T04:31:46.534Z,4.26
2022-12-31T04:34:13.444Z,4.46
2022-12-31T04:36:40.113Z,4.31
2022-12-31T04:39:07.276Z,4.27
2022-12-31T04:41:34.192Z,4.37
2022-12-31T04:44:01.093Z,4.28
2022-12-31T04:46:30.557Z,4.24
2022-12-31T04:49:02.276Z,4.20
2022-12-31T04:51:30.536Z,4.16
2022-12-31T04:53:58.262Z,4.18
2022-12-31T04:56:26.150Z,4.15
2022-12-31T04:58:52.980Z,4.14
2022-12-31T05:01:20.207Z,4.13
2022-12-31T05:03:47.152Z,4.14
2022-12-31T05:06:17.015Z,4.15
2022-12-31T05:08:43.954Z,4.13
2022-12-31T05:11:11.379Z,4.25
2022-12-31T05:13:38.327Z,4.21
2022-12-31T05:16:05.397Z,4.16
2022-12-31T05:18:32.945Z,4.17
2022-12-31T05:21:00.095Z,4.14
2022-12-31T05:23:27.525Z,4.13
2022-12-31T05:25:54.624Z,4.14
2022-12-31T05:28:21.688Z,4.25
2022-12-31T05:30:50.285Z,4.20
2022-12-31T05:33:18.387Z,4.13
2022-12-31T05:35:45.616Z,4.16
2022-12-31T05:38:12.370Z,4.15
2022-12-31T05:40:39.006Z,4.16
2022-12-31T05:43:05.806Z,4.17
2022-12-31T05:45:32.509Z,4.19
2022-12-31T05:47:59.242Z,4.24
2022-12-31T05:50:26.267Z,4.23
2022-12-31T05:52:52.917Z,4.17
2022-12-31T05:55:19.642Z,4.16
2022-12-31T05:57:46.474Z,4.20
2022-12-31T06:00:14.125Z,4.17
2022-12-31T06:02:41.107Z,4.26
2022-12-31T06:05:08.189Z,4.27
2022-12-31T06:07:34.864Z,4.28
2022-12-31T06:10:01.558Z,4.24
2022-12-31T06:12:28.220Z,4.22
2022-12-31T06:14:54.832Z,4.18
2022-12-31T06:17:22.545Z,4.16
2022-12-31T06:19:49.265Z,4.12
2022-12-31T06:22:16.144Z,4.13
2022-12-31T06:24:42.780Z,4.18
2022-12-31T06:27:09.745Z,4.16
2022-12-31T06:29:36.368Z,4.11
2022-12-31T06:32:03.038Z,4.05
2022-12-31T06:34:29.696Z,3.97
2022-12-31T06:36:56.373Z,3.97
2022-12-31T06:39:23.126Z,3.95
2022-12-31T06:41:49.819Z,3.94
2022-12-31T06:44:16.639Z,3.94
2022-12-31T06:46:43.390Z,3.91
2022-12-31T06:49:10.247Z,3.90
2022-12-31T06:51:36.883Z,3.79
2022-12-31T06:54:06.818Z,3.82
2022-12-31T06:56:35.007Z,3.78
2022-12-31T06:59:03.204Z,3.75
2022-12-31T07:01:43.423Z,3.74
2022-12-31T07:04:29.689Z,3.70
2022-12-31T07:07:01.225Z,3.91
2022-12-31T07:09:48.796Z,3.80
2022-12-31T07:12:41.245Z,3.76
2022-12-31T07:15:13.771Z,3.81
2022-12-31T07:17:41.449Z,3.76
2022-12-31T07:20:14.359Z,3.90
2022-12-31T07:22:41.450Z,3.83
2022-12-31T07:25:12.709Z,3.87
2022-12-31T07:28:19.177Z,3.76
2022-12-31T07:30:55.717Z,3.77
2022-12-31T07:33:32.116Z,3.70
2022-12-31T07:36:24.442Z,3.73
2022-12-31T07:39:00.031Z,3.76
2022-12-31T07:41:38.667Z,3.76
2022-12-31T07:44:12.530Z,3.75
2022-12-31T07:46:55.356Z,3.74
2022-12-31T07:49:23.533Z,3.76
2022-12-31T07:51:50.566Z,3.81
2022-12-31T07:54:17.266Z,3.81
2022-12-31T07:56:45.094Z,3.91
2022-12-31T07:59:23.944Z,3.89
2022-12-31T08:02:18.615Z,3.91
2022-12-31T08:05:00.848Z,4.27
2022-12-31T08:07:42.646Z,4.16
2022-12-31T08:10:19.836Z,4.22
2022-12-31T08:12:49.930Z,4.13
2022-12-31T08:15:18.789Z,4.12
2022-12-31T08:17:46.034Z,4.14
2022-12-31T08:20:15.990Z,4.19
2022-12-31T08:23:04.460Z,4.28
2022-12-31T08:25:55.824Z,4.32
2022-12-31T08:28:32.188Z,4.29
2022-12-31T08:30:59.824Z,4.36
2022-12-31T08:33:39.116Z,4.44
2022-12-31T08:36:17.306Z,4.44
2022-12-31T08:38:56.753Z,4.48
2022-12-31T08:41:43.099Z,4.53
2022-12-31T08:44:22.619Z,4.57
2022-12-31T08:46:55.895Z,4.63
2022-12-31T08:49:22.684Z,4.65
2022-12-31T08:51:49.553Z,4.66
2022-12-31T08:54:16.422Z,4.65
2022-12-31T08:57:03.984Z,4.67
2022-12-31T09:00:01.226Z,4.68
2022-12-31T09:02:48.018Z,4.69
2022-12-31T09:05:40.681Z,4.75
2022-12-31T09:08:28.605Z,4.79
2022-12-31T09:11:09.654Z,4.80
2022-12-31T09:13:59.950Z,4.83
2022-12-31T09:16:57.305Z,4.94
2022-12-31T09:19:23.883Z,5.09
2022-12-31T09:21:50.913Z,5.10
2022-12-31T09:24:17.823Z,5.12
2022-12-31T09:27:04.725Z,5.13
2022-12-31T09:29:31.209Z,5.18
2022-12-31T09:32:12.274Z,5.24
2022-12-31T09:34:45.054Z,5.22
2022-12-31T09:37:21.723Z,5.24
2022-12-31T09:39:49.300Z,5.33
2022-12-31T09:42:32.337Z,5.54
2022-12-31T09:45:19.873Z,5.60
2022-12-31T09:48:17.298Z,5.60
2022-12-31T09:50:52.754Z,5.63
2022-12-31T09:53:32.143Z,5.66
2022-12-31T09:56:15.163Z,5.69
2022-12-31T09:58:43.302Z,5.76
2022-12-31T10:01:38.484Z,5.74
2022-12-31T10:04:35.785Z,5.90
2022-12-31T10:07:15.569Z,5.86
2022-12-31T10:09:58.544Z,5.83
2022-12-31T10:12:55.743Z,5.93
2022-12-31T10:15:44.593Z,6.03
2022-12-31T10:18:42.171Z,6.08
2022-12-31T10:21:36.245Z,6.25
2022-12-31T10:24:18.494Z,6.51
2022-12-31T10:26:58.513Z,6.72
2022-12-31T10:29:32.055Z,6.70
2022-12-31T10:32:31.563Z,6.71
2022-12-31T10:35:00.419Z,6.65
2022-12-31T10:37:44.046Z,6.82
2022-12-31T10:40:41.311Z,6.68
2022-12-31T10:43:38.395Z,6.81
2022-12-31T10:46:36.657Z,6.95
2022-12-31T10:49:25.364Z,6.89
2022-12-31T10:52:12.864Z,6.92
2022-12-31T10:55:14.791Z,6.91
2022-12-31T10:58:16.715Z,6.88
2022-12-31T11:00:53.491Z,6.87
2022-12-31T11:03:50.341Z,6.92
2022-12-31T11:06:36.875Z,6.97
2022-12-31T11:09:39.118Z,6.98
2022-12-31T11:12:21.619Z,7.08
2022-12-31T11:15:03.457Z,7.06
2022-12-31T11:17:31.105Z,7.05
2022-12-31T11:20:13.934Z,7.24
2022-12-31T11:23:01.411Z,7.38
2022-12-31T11:25:48.113Z,7.40
2022-12-31T11:28:31.129Z,7.41
2022-12-31T11:31:14.310Z,7.42
2022-12-31T11:34:16.090Z,7.39
2022-12-31T11:37:13.274Z,7.33
2022-12-31T11:39:50.054Z,7.50
2022-12-31T11:42:32.974Z,7.56
2022-12-31T11:45:12.056Z,7.51
2022-12-31T11:51:06.310Z,7.67
2022-12-31T11:53:44.092Z,7.72
2022-12-31T11:56:18.571Z,7.76
2022-12-31T11:58:50.565Z,7.80
2022-12-31T12:01:27.048Z,7.80
2022-12-31T12:03:53.772Z,7.78
2022-12-31T12:06:27.959Z,7.87
2022-12-31T12:09:04.584Z,7.94
2022-12-31T12:11:35.135Z,7.96
2022-12-31T12:14:02.055Z,7.98
2022-12-31T12:16:28.885Z,8.03
2022-12-31T12:19:17.640Z,8.03
2022-12-31T12:21:47.605Z,8.01
2022-12-31T12:24:21.927Z,8.00
2022-12-31T12:26:49.192Z,8.05
2022-12-31T12:29:18.645Z,8.11
2022-12-31T12:32:04.351Z,8.12
2022-12-31T12:34:33.577Z,8.23
2022-12-31T12:37:00.540Z,8.25
2022-12-31T12:39:31.965Z,8.18
2022-12-31T12:42:03.587Z,8.18
2022-12-31T12:44:31.024Z,8.12
2022-12-31T12:46:58.432Z,8.11
2022-12-31T12:49:27.312Z,8.17
2022-12-31T12:52:09.313Z,8.18
2022-12-31T12:54:55.932Z,8.23
2022-12-31T12:57:39.591Z,8.25
2022-12-31T13:00:23.204Z,8.14
2022-12-31T13:02:59.779Z,8.09
2022-12-31T13:05:41.952Z,8.11
2022-12-31T13:08:39.059Z,8.09
2022-12-31T13:11:22.794Z,8.11
2022-12-31T13:14:01.035Z,8.08
2022-12-31T13:16:43.545Z,8.10
2022-12-31T13:19:42.045Z,8.18
2022-12-31T13:22:23.383Z,8.15
2022-12-31T13:24:51.050Z,8.15
2022-12-31T13:27:32.876Z,8.34
2022-12-31T13:30:02.375Z,8.23
2022-12-31T13:32:40.692Z,8.19
2022-12-31T13:35:29.020Z,8.22
2022-12-31T13:38:05.854Z,8.24
2022-12-31T13:40:53.098Z,8.28
2022-12-31T13:43:35.316Z,8.27
2022-12-31T13:46:22.282Z,8.27
2022-12-31T13:48:54.613Z,8.22
2022-12-31T13:51:45.911Z,8.19
2022-12-31T13:54:20.349Z,8.23
2022-12-31T13:56:50.612Z,8.23
2022-12-31T13:59:21.781Z,8.16
2022-12-31T14:02:08.397Z,8.15
2022-12-31T14:04:43.810Z,8.13
2022-12-31T14:07:16.913Z,8.14
2022-12-31T14:09:43.981Z,8.15
2022-12-31T14:12:21.772Z,8.16
2022-12-31T14:15:24.039Z,8.23
2022-12-31T14:18:04.613Z,8.31
2022-12-31T14:20:47.865Z,8.82
2022-12-31T14:23:49.857Z,9.59
2022-12-31T14:26:31.833Z,10.13
2022-12-31T14:29:19.545Z,10.14
2022-12-31T14:32:11.301Z,10.41
2022-12-31T14:34:45.789Z,10.54
2022-12-31T14:37:36.180Z,10.19
2022-12-31T14:40:25.489Z,10.39
2022-12-31T14:43:10.230Z,9.94
2022-12-31T14:46:01.478Z,9.68
2022-12-31T14:48:58.685Z,9.30
2022-12-31T14:51:30.175Z,9.05
2022-12-31T14:53:58.344Z,8.92
2022-12-31T14:56:44.631Z,8.66
2022-12-31T14:59:29.537Z,8.48
2022-12-31T15:01:58.629Z,8.24
2022-12-31T15:04:49.470Z,8.14
2022-12-31T15:07:30.237Z,8.01
2022-12-31T15:10:18.178Z,7.86
2022-12-31T15:13:06.811Z,7.70
2022-12-31T15:15:57.424Z,7.61
2022-12-31T15:18:25.053Z,7.46
2022-12-31T15:21:11.693Z,7.28
2022-12-31T15:23:42.273Z,7.25
2022-12-31T15:26:23.256Z,7.15
2022-12-31T15:29:01.026Z,7.08
2022-12-31T15:31:28.610Z,7.07
2022-12-31T15:34:02.651Z,7.03
2022-12-31T15:36:32.355Z,6.98
2022-12-31T15:39:25.568Z,6.86
2022-12-31T15:42:36.073Z,6.71
2022-12-31T15:44:50.184Z,6.60
2022-12-31T15:47:22.984Z,6.67
2022-12-31T15:49:53.676Z,6.63
2022-12-31T15:52:25.527Z,6.58
2022-12-31T15:54:56.588Z,6.41
2022-12-31T15:57:33.063Z,6.32
2022-12-31T16:00:01.950Z,6.12
2022-12-31T16:02:28.953Z,6.04
2022-12-31T16:04:56.060Z,6.04
2022-12-31T16:07:24.312Z,6.06
2022-12-31T16:09:56.001Z,6.01
2022-12-31T16:12:32.803Z,5.91
2022-12-31T16:15:01.726Z,5.73
2022-12-31T16:17:29.708Z,5.62
2022-12-31T16:19:58.461Z,5.66
2022-12-31T16:22:36.258Z,5.61
2022-12-31T16:25:30.563Z,5.65
2022-12-31T16:27:54.183Z,5.48
2022-12-31T16:30:21.077Z,5.27
2022-12-31T16:32:50.084Z,5.23
2022-12-31T16:35:34.161Z,5.08
2022-12-31T16:38:02.736Z,5.21
2022-12-31T16:40:29.818Z,5.29
2022-12-31T16:42:56.491Z,5.30
2022-12-31T16:45:34.929Z,5.14
2022-12-31T16:48:16.567Z,5.13
2022-12-31T16:50:46.472Z,5.16
2022-12-31T16:53:18.136Z,5.03
2022-12-31T16:55:53.042Z,5.11
2022-12-31T16:58:26.838Z,4.80
2022-12-31T17:00:55.735Z,4.85
2022-12-31T17:03:25.016Z,4.82
2022-12-31T17:05:56.999Z,4.83
2022-12-31T17:08:28.413Z,4.89
2022-12-31T17:10:56.522Z,4.88
2022-12-31T17:13:29.296Z,4.88
2022-12-31T17:15:58.092Z,4.81
2022-12-31T17:18:29.020Z,4.83
2022-12-31T17:21:04.290Z,4.87
2022-12-31T17:23:33.998Z,4.61
2022-12-31T17:26:09.507Z,4.56
2022-12-31T17:28:52.337Z,4.59
2022-12-31T17:31:36.904Z,4.37
2022-12-31T17:34:20.897Z,4.32
2022-12-31T17:37:17.494Z,4.36
2022-12-31T17:39:47.307Z,4.28
2022-12-31T17:42:21.731Z,4.34
2022-12-31T17:44:48.561Z,4.34
2022-12-31T17:47:15.189Z,4.34
2022-12-31T17:49:45.790Z,4.39
2022-12-31T17:52:14.632Z,4.36
2022-12-31T17:54:42.277Z,4.36
2022-12-31T17:57:24.023Z,4.32
2022-12-31T17:59:50.954Z,4.15
2022-12-31T18:02:17.822Z,4.17
2022-12-31T18:04:44.641Z,4.04
2022-12-31T18:07:11.474Z,4.06
2022-12-31T18:09:38.287Z,4.11
2022-12-31T18:12:06.407Z,4.01
2022-12-31T18:14:33.674Z,4.05
2022-12-31T18:17:00.787Z,4.04
2022-12-31T18:20:02.902Z,4.06
2022-12-31T18:22:17.600Z,4.10
2022-12-31T18:24:44.402Z,4.07
2022-12-31T18:27:17.007Z,3.96
2022-12-31T18:29:43.824Z,3.90
2022-12-31T18:32:28.125Z,3.84
2022-12-31T18:34:54.925Z,3.67
2022-12-31T18:37:22.464Z,3.64
2022-12-31T18:39:49.239Z,3.67
2022-12-31T18:42:18.581Z,3.67
2022-12-31T18:44:46.518Z,3.60
2022-12-31T18:47:16.346Z,3.53
2022-12-31T18:49:44.834Z,3.56
2022-12-31T18:52:14.713Z,3.60
2022-12-31T18:54:42.027Z,3.50
2022-12-31T18:57:13.651Z,3.26
2022-12-31T18:59:40.821Z,3.25
2022-12-31T19:02:15.253Z,3.35
2022-12-31T19:04:42.102Z,3.41
2022-12-31T19:07:08.751Z,3.42
2022-12-31T19:09:56.386Z,3.33
2022-12-31T19:12:22.235Z,3.28
2022-12-31T19:14:48.906Z,3.19
2022-12-31T19:17:15.690Z,3.06
2022-12-31T19:19:42.361Z,2.97
2022-12-31T19:22:14.935Z,2.97
2022-12-31T19:24:41.614Z,3.05
2022-12-31T19:27:09.732Z,3.11
2022-12-31T19:29:36.403Z,3.12
2022-12-31T19:32:03.106Z,3.10
2022-12-31T19:34:29.759Z,3.13
2022-12-31T19:36:56.416Z,3.12
2022-12-31T19:39:23.069Z,2.87
2022-12-31T19:41:56.510Z,2.78
2022-12-31T19:44:25.750Z,2.74
2022-12-31T19:46:52.476Z,2.67
2022-12-31T19:49:19.126Z,2.73
2022-12-31T19:51:45.778Z,2.74
2022-12-31T19:54:13.610Z,2.83
2022-12-31T19:56:40.565Z,2.87
2022-12-31T19:59:09.523Z,2.89
2022-12-31T20:01:36.301Z,2.91
2022-12-31T20:04:03.098Z,2.87
2022-12-31T20:06:30.011Z,2.89
2022-12-31T20:08:56.675Z,2.89
2022-12-31T20:11:24.483Z,2.63
2022-12-31T20:13:53.642Z,2.54
2022-12-31T20:16:23.350Z,2.53
2022-12-31T20:18:50.781Z,2.59
2022-12-31T20:21:19.966Z,2.48
2022-12-31T20:23:48.671Z,2.50
2022-12-31T20:26:15.696Z,2.58
2022-12-31T20:28:42.560Z,2.55
2022-12-31T20:31:16.231Z,2.52
2022-12-31T20:33:43.394Z,2.49
2022-12-31T20:36:13.473Z,2.55
2022-12-31T20:38:41.067Z,2.49
2022-12-31T20:41:11.529Z,2.41
2022-12-31T20:43:38.966Z,2.31
2022-12-31T20:46:12.677Z,2.35
2022-12-31T20:48:41.908Z,2.42
2022-12-31T20:51:08.620Z,2.49
2022-12-31T20:53:35.293Z,2.54
2022-12-31T20:56:06.313Z,2.56
2022-12-31T20:58:33.565Z,2.60
2022-12-31T21:01:00.480Z,2.57
2022-12-31T21:06:14.918Z,2.33
2022-12-31T21:08:42.290Z,2.27
2022-12-31T21:11:25.144Z,2.26
2022-12-31T21:13:51.824Z,2.29
2022-12-31T21:16:18.550Z,2.36
2022-12-31T21:18:45.534Z,2.38
2022-12-31T21:21:13.016Z,2.32
2022-12-31T21:23:40.235Z,2.28
2022-12-31T21:26:07.050Z,2.19
2022-12-31T21:28:33.878Z,2.14
2022-12-31T21:31:03.574Z,2.14
2022-12-31T21:33:30.455Z,2.11
2022-12-31T21:36:02.624Z,2.23
2022-12-31T21:38:31.263Z,2.27
2022-12-31T21:41:07.860Z,2.30
2022-12-31T21:43:35.185Z,2.33
2022-12-31T21:46:04.607Z,2.37
2022-12-31T21:48:31.661Z,2.37
2022-12-31T21:51:09.304Z,2.31
2022-12-31T21:53:37.340Z,2.27
2022-12-31T21:56:08.369Z,2.32
2022-12-31T21:58:40.214Z,2.38
2022-12-31T22:01:22.735Z,2.39
2022-12-31T22:03:49.669Z,2.28
2022-12-31T22:06:22.104Z,2.21
2022-12-31T22:08:51.820Z,2.23
2022-12-31T22:11:20.779Z,2.36
2022-12-31T22:13:47.736Z,2.36
2022-12-31T22:16:15.104Z,2.37
2022-12-31T22:18:42.974Z,2.41
2022-12-31T22:21:18.315Z,2.47
2022-12-31T22:23:49.317Z,2.62
2022-12-31T22:26:17.575Z,2.57
2022-12-31T22:28:45.581Z,2.56
2022-12-31T22:31:15.185Z,2.48
2022-12-31T22:33:42.675Z,2.53
2022-12-31T22:36:14.209Z,2.57
2022-12-31T22:38:41.033Z,2.60
2022-12-31T22:41:10.640Z,2.67
2022-12-31T22:43:40.235Z,2.56
2022-12-31T22:46:09.866Z,2.41
2022-12-31T22:48:37.165Z,2.34
2022-12-31T22:51:04.317Z,2.33
2022-12-31T22:53:31.069Z,2.30
2022-12-31T22:55:58.138Z,2.33
2022-12-31T22:58:28.095Z,2.24
2022-12-31T23:00:54.799Z,2.34
2022-12-31T23:03:21.753Z,2.33
2022-12-31T23:05:52.078Z,2.31
2022-12-31T23:08:23.760Z,2.32
2022-12-31T23:10:59.961Z,2.32
2022-12-31T23:13:49.756Z,2.37
2022-12-31T23:16:32.959Z,2.21
2022-12-31T23:19:15.937Z,2.26
2022-12-31T23:21:57.976Z,2.19
2022-12-31T23:24:27.991Z,2.17
2022-12-31T23:26:57.143Z,2.22
2022-12-31T23:29:25.182Z,2.23
2022-12-31T23:31:53.018Z,2.27
2022-12-31T23:34:20.299Z,2.26
2022-12-31T23:36:47.032Z,2.26
2022-12-31T23:39:14.768Z,2.18
2022-12-31T23:41:41.418Z,2.24
2022-12-31T23:44:08.267Z,2.19
2022-12-31T23:46:34.930Z,2.17
2022-12-31T23:49:01.676Z,2.16
2022-12-31T23:51:28.357Z,2.08
2022-12-31T23:53:55.052Z,2.02
2022-12-31T23:56:23.964Z,2.09
2022-12-31T23:58:59.731Z,2.08
